ROMMA est une association bénévole à but non lucratif. Votre soutien est indispensable : ADHERER à ROMMA ou FAIRE un DON

Briord - (01, Ain)

Bugey (281 m)   Longitude: 05° 29' 13" E   Latitude: 45° 46' 37" N Station partenaire n°15
 

Détail journalier du     <<     >>

Température Precipitation Humidité Pression Vent Dir Rafale Dir. rafale Ensol.
Heure (°C) (mm) (%) (hPa) (km/h) (km/h) (min)
01:00 12.1089100100---0
02:00 12.2089100100---0
03:00 11.2089100005ESE0
04:00 10.2090100100---0
05:00 10.9088100008SE0
06:00 9.8088100003ESE0
07:00 9.1089100102SO0
08:00 11.508610011ESE10ESE5
09:00 17.106110011SE11E25
10:00 17.306310023SE15SE5
11:00 16.406710033ONO24SO0
12:00 14.907810042O15ONO0
13:00 13.60.48710061ESE11O0
14:00 10.22.48710078SE45O0
15:00 10.2186100812SE40SSE0
16:00 12.20.27810068ESE26ESE0
17:00 16.4063100513SE39SSE55
18:00 17.8054100513SE34SE60
19:00 18.104010058SSE42SE45
20:00 17.004310065SSE29SSO60
21:00 14.405810071S19SSE10
22:00 12.306510091O18O0
23:00 11.1070100806SE0
minuit 10.9064100805SSE0

Graphique du 24-04-2019

 

Serveur OMMA